Time;durP1;ratioP1;P1;durP2;ratioP2;P2;SDS_P1;SDS_P2;PMS_P1;PMS_P2;Temp;Humidity;BMP_temperature;BMP_pressure;BME280_temperature;BME280_humidity;BME280_pressure;Samples;Min_cycle;Max_cycle;Signal;HPM_P1;HPM_P2
2022/05/11 00:01:22;;;;;;;6.88;4.93;;;16.70;92.60;;;;;;5034322;28;20234;-83
2022/05/11 00:03:47;;;;;;;6.68;5.60;;;16.70;92.40;;;;;;5031663;28;20041;-84
2022/05/11 00:06:13;;;;;;;8.15;5.63;;;16.70;92.70;;;;;;5033612;28;20033;-83
2022/05/11 00:08:39;;;;;;;9.27;5.20;;;16.70;93.00;;;;;;5033792;28;20037;-82
2022/05/11 00:11:05;;;;;;;6.68;5.75;;;16.60;93.20;;;;;;5034327;28;20033;-83
2022/05/11 00:13:32;;;;;;;7.97;5.65;;;16.60;93.20;;;;;;5017022;28;20079;-82
2022/05/11 00:15:58;;;;;;;6.65;5.35;;;16.50;93.60;;;;;;5031783;28;20048;-83
2022/05/11 00:18:23;;;;;;;6.53;5.57;;;16.40;93.80;;;;;;5033220;28;20044;-83
2022/05/11 00:20:49;;;;;;;6.72;5.75;;;16.30;93.90;;;;;;5045672;28;20037;-82
2022/05/11 00:23:15;;;;;;;6.90;6.20;;;16.30;94.30;;;;;;5017876;28;20052;-84
2022/05/11 00:25:40;;;;;;;7.80;6.20;;;16.20;94.50;;;;;;5016811;28;20032;-83
2022/05/11 00:28:06;;;;;;;8.18;6.18;;;16.10;94.90;;;;;;5032439;28;20033;-83
2022/05/11 00:30:32;;;;;;;6.13;5.53;;;16.10;94.60;;;;;;5017499;28;20537;-83
2022/05/11 00:32:59;;;;;;;7.45;6.13;;;16.00;95.10;;;;;;5017245;28;20048;-83
2022/05/11 00:35:30;;;;;;;7.32;5.90;;;16.00;95.20;;;;;;5039347;28;20033;-83
2022/05/11 00:37:56;;;;;;;6.25;5.30;;;16.00;95.20;;;;;;5049657;28;20559;-84
2022/05/11 00:40:23;;;;;;;7.03;5.72;;;16.00;95.20;;;;;;5050158;28;20136;-83
2022/05/11 00:42:50;;;;;;;7.82;5.93;;;15.90;95.30;;;;;;5033067;28;20033;-82
2022/05/11 00:45:15;;;;;;;6.20;5.60;;;15.90;95.30;;;;;;5031244;28;20029;-83
2022/05/11 00:47:46;;;;;;;8.10;5.95;;;15.80;95.60;;;;;;5031615;28;20036;-83
2022/05/11 00:50:30;;;;;;;8.13;6.18;;;15.80;96.00;;;;;;5050108;28;20059;-82
2022/05/11 00:53:09;;;;;;;7.55;5.80;;;15.80;95.80;;;;;;5033633;28;20071;-83
2022/05/11 00:55:39;;;;;;;6.97;5.85;;;15.80;96.30;;;;;;5017548;28;20037;-83
2022/05/11 00:58:11;;;;;;;7.47;5.40;;;15.70;96.30;;;;;;5049250;28;20090;-82
2022/05/11 01:00:38;;;;;;;7.03;5.63;;;15.70;96.50;;;;;;5005935;28;20258;-83
2022/05/11 01:03:10;;;;;;;6.60;5.90;;;15.70;96.50;;;;;;5012225;28;20041;-83
2022/05/11 01:05:36;;;;;;;6.05;5.38;;;15.60;96.40;;;;;;5045948;28;20029;-82
2022/05/11 01:08:06;;;;;;;6.90;6.10;;;15.60;96.30;;;;;;5029534;28;20336;-83
2022/05/11 01:10:32;;;;;;;7.03;5.50;;;15.60;96.60;;;;;;5029722;28;20394;-83
2022/05/11 01:13:01;;;;;;;8.15;6.10;;;15.60;96.70;;;;;;5023917;28;20042;-83
2022/05/11 01:15:31;;;;;;;7.13;5.72;;;15.60;97.10;;;;;;5046058;28;20021;-83
2022/05/11 01:17:57;;;;;;;7.35;5.95;;;15.60;97.00;;;;;;5028121;28;20037;-81
2022/05/11 01:20:25;;;;;;;11.02;6.57;;;15.50;97.00;;;;;;5033392;28;20072;-82
2022/05/11 01:23:00;;;;;;;7.50;5.97;;;15.50;97.40;;;;;;5017035;28;20040;-83
2022/05/11 01:25:26;;;;;;;;;;;15.50;97.50;;;;;;5013084;28;20030;-84
2022/05/11 01:27:59;;;;;;;;;;;15.40;98.00;;;;;;5047210;28;19920;-82
2022/05/11 01:30:25;;;;;;;10.23;6.68;;;15.30;98.20;;;;;;5033009;28;19962;-83
2022/05/11 01:32:53;;;;;;;9.10;6.65;;;15.30;98.50;;;;;;5016299;28;20040;-83
2022/05/11 01:35:42;;;;;;;9.25;6.80;;;15.20;98.90;;;;;;5032859;28;20040;-84
2022/05/11 01:38:34;;;;;;;7.13;6.13;;;15.20;99.00;;;;;;5032071;28;20029;-83
2022/05/11 01:41:00;;;;;;;6.72;5.88;;;15.10;99.30;;;;;;5028008;28;20071;-83
2022/05/11 01:43:37;;;;;;;8.63;6.93;;;15.00;99.40;;;;;;5041014;28;20120;-84
2022/05/11 01:46:03;;;;;;;7.07;6.07;;;15.00;99.90;;;;;;5027790;28;20104;-84
2022/05/11 01:48:29;;;;;;;8.18;6.28;;;15.00;99.90;;;;;;5035626;28;20026;-84
2022/05/11 01:50:55;;;;;;;8.25;6.93;;;15.00;99.90;;;;;;5030240;28;20026;-82
2022/05/11 01:53:21;;;;;;;7.22;5.95;;;15.00;99.90;;;;;;5032278;28;20043;-83
2022/05/11 01:55:47;;;;;;;6.82;6.07;;;15.00;99.90;;;;;;5032120;28;20121;-83
2022/05/11 01:58:14;;;;;;;7.80;6.22;;;15.00;99.90;;;;;;5013073;28;20033;-84
2022/05/11 02:00:42;;;;;;;7.50;6.05;;;15.00;99.90;;;;;;5032070;28;20043;-84
2022/05/11 02:03:08;;;;;;;6.38;5.65;;;15.10;99.90;;;;;;5014821;28;20033;-83
2022/05/11 02:08:19;;;;;;;9.07;6.10;;;15.10;99.90;;;;;;5047582;28;20052;-81
2022/05/11 02:10:45;;;;;;;8.60;6.55;;;15.10;99.90;;;;;;5031914;28;20495;-82
2022/05/11 02:13:11;;;;;;;6.85;6.15;;;15.10;99.90;;;;;;5032041;28;20118;-81
2022/05/11 02:15:37;;;;;;;7.70;6.78;;;15.10;99.90;;;;;;5006023;28;20044;-84
2022/05/11 02:18:04;;;;;;;8.05;6.47;;;15.10;99.90;;;;;;5028514;28;20116;-84
2022/05/11 02:20:30;;;;;;;8.90;6.55;;;15.10;99.90;;;;;;5015534;28;20634;-84
2022/05/11 02:22:55;;;;;;;7.05;5.95;;;15.20;99.90;;;;;;5048450;28;20033;-83
2022/05/11 02:25:21;;;;;;;8.90;6.68;;;15.20;99.90;;;;;;5030209;28;20028;-82
2022/05/11 02:27:49;;;;;;;9.43;6.18;;;15.20;99.90;;;;;;5029224;28;20124;-82
2022/05/11 02:30:23;;;;;;;7.72;6.30;;;15.20;99.90;;;;;;5032540;28;20021;-82
2022/05/11 02:32:49;;;;;;;7.15;6.22;;;15.30;99.90;;;;;;5048368;28;20090;-83
2022/05/11 02:35:16;;;;;;;8.00;6.85;;;15.20;99.90;;;;;;5048399;28;20037;-85
2022/05/11 02:37:53;;;;;;;7.80;6.85;;;15.20;99.90;;;;;;5027251;28;20419;-84
2022/05/11 02:40:25;;;;;;;8.27;6.70;;;15.20;99.90;;;;;;5048327;28;20029;-84
2022/05/11 02:42:51;;;;;;;6.75;5.82;;;15.20;99.90;;;;;;5031699;28;20029;-84
2022/05/11 02:45:21;;;;;;;7.65;5.78;;;15.20;99.90;;;;;;5012391;28;20033;-84
2022/05/11 02:47:48;;;;;;;7.00;6.30;;;15.20;99.90;;;;;;5028179;28;20075;-84
2022/05/11 02:50:18;;;;;;;6.63;5.78;;;15.10;99.90;;;;;;5039556;28;20029;-83
2022/05/11 02:52:44;;;;;;;6.78;5.88;;;15.20;99.90;;;;;;5004631;28;20021;-83
2022/05/11 02:55:10;;;;;;;6.40;5.75;;;15.20;99.90;;;;;;5048033;28;20426;-83
2022/05/11 02:57:36;;;;;;;8.27;6.45;;;15.20;99.90;;;;;;5030373;28;20041;-84
2022/05/11 03:00:05;;;;;;;7.75;6.15;;;15.20;99.90;;;;;;5047856;28;20422;-82
2022/05/11 03:02:31;;;;;;;9.38;6.70;;;15.10;99.90;;;;;;5031090;28;20484;-84
2022/05/11 03:04:57;;;;;;;8.63;6.25;;;15.10;99.90;;;;;;5031135;28;20037;-83
2022/05/11 03:07:23;;;;;;;7.70;6.28;;;15.10;99.90;;;;;;5028918;28;20029;-82
2022/05/11 03:09:49;;;;;;;8.65;6.88;;;15.10;99.90;;;;;;5047322;28;20069;-83
2022/05/11 03:12:16;;;;;;;8.68;6.68;;;15.10;99.90;;;;;;5031084;28;20533;-83
2022/05/11 03:14:42;;;;;;;7.72;6.53;;;15.10;99.90;;;;;;5047636;28;20040;-83
2022/05/11 03:17:08;;;;;;;7.68;6.55;;;15.10;99.90;;;;;;5013806;28;20041;-84
2022/05/11 03:19:34;;;;;;;11.60;7.07;;;15.10;99.90;;;;;;5006753;28;20041;-84
2022/05/11 03:22:00;;;;;;;8.43;7.18;;;15.00;99.90;;;;;;5012452;28;20053;-83
2022/05/11 03:24:26;;;;;;;9.60;7.28;;;15.00;99.90;;;;;;5013000;28;20067;-84
2022/05/11 03:26:51;;;;;;;8.95;7.20;;;14.90;99.90;;;;;;5025361;28;20037;-83
2022/05/11 03:29:19;;;;;;;9.30;7.72;;;14.90;99.90;;;;;;5007482;28;20029;-84
2022/05/11 03:34:36;;;;;;;9.55;7.50;;;14.80;99.90;;;;;;5031324;28;20025;-84
2022/05/11 03:34:38;;;;;;;7.93;6.65;;;14.70;99.90;;;;;;5047136;28;20033;-83
2022/05/11 03:37:05;;;;;;;9.73;7.70;;;14.60;99.90;;;;;;5014533;28;20072;-83
2022/05/11 03:39:31;;;;;;;11.13;7.90;;;14.50;99.90;;;;;;5011717;28;20069;-84
2022/05/11 03:41:56;;;;;;;10.23;8.18;;;14.40;99.90;;;;;;5014519;28;20403;-84
2022/05/11 03:44:23;;;;;;;8.98;7.25;;;14.40;99.90;;;;;;4998125;28;20171;-84
2022/05/11 03:46:48;;;;;;;10.63;8.25;;;14.30;99.90;;;;;;5018199;28;20147;-83
2022/05/11 03:49:14;;;;;;;10.05;7.90;;;14.30;99.90;;;;;;5013666;28;20546;-82
2022/05/11 03:51:40;;;;;;;10.98;7.80;;;14.30;99.90;;;;;;5034226;28;20033;-84
2022/05/11 03:54:06;;;;;;;8.80;7.55;;;14.20;99.90;;;;;;4998212;28;20172;-84
2022/05/11 03:56:32;;;;;;;10.15;7.57;;;14.20;99.90;;;;;;5044300;28;20036;-85
2022/05/11 03:58:58;;;;;;;10.75;8.23;;;14.20;99.90;;;;;;5000940;28;20037;-84
2022/05/11 04:01:24;;;;;;;11.35;7.57;;;14.20;99.90;;;;;;5034110;28;20037;-84
2022/05/11 04:03:49;;;;;;;11.02;8.48;;;14.30;99.90;;;;;;5016920;28;20029;-83
2022/05/11 04:06:15;;;;;;;10.68;7.90;;;14.30;99.90;;;;;;5031750;28;20044;-83
2022/05/11 04:08:42;;;;;;;10.20;7.88;;;14.40;99.90;;;;;;5016021;28;20091;-83
2022/05/11 04:11:08;;;;;;;14.63;8.15;;;14.40;99.90;;;;;;5017003;28;20036;-84
2022/05/11 04:13:34;;;;;;;13.35;7.88;;;14.40;99.90;;;;;;5013603;28;20447;-84
2022/05/11 04:15:59;;;;;;;10.98;8.85;;;14.40;99.90;;;;;;5048397;28;20029;-84
2022/05/11 04:18:25;;;;;;;10.60;8.20;;;14.50;99.90;;;;;;5032933;28;20063;-83
2022/05/11 04:20:52;;;;;;;12.35;9.18;;;14.50;99.90;;;;;;5048188;28;20040;-83
2022/05/11 04:23:18;;;;;;;11.90;8.57;;;14.60;99.90;;;;;;5016388;28;20476;-82
2022/05/11 04:25:43;;;;;;;10.35;8.52;;;14.60;99.90;;;;;;5032344;28;20028;-83
2022/05/11 04:28:11;;;;;;;9.27;7.60;;;14.60;99.90;;;;;;4999341;28;20029;-83
2022/05/11 04:30:38;;;;;;;10.38;8.75;;;14.60;99.90;;;;;;5029700;28;20547;-84
2022/05/11 04:33:04;;;;;;;13.13;9.07;;;14.60;99.90;;;;;;5023127;28;20132;-83
2022/05/11 04:35:30;;;;;;;10.13;8.32;;;14.70;99.90;;;;;;5049502;28;20395;-83
2022/05/11 04:38:03;;;;;;;11.95;8.52;;;14.70;99.90;;;;;;5014517;28;20048;-84
2022/05/11 04:40:30;;;;;;;11.68;9.13;;;14.70;99.90;;;;;;5017592;28;20044;-83
2022/05/11 04:42:56;;;;;;;15.55;8.57;;;14.70;99.90;;;;;;5032873;28;20059;-82
2022/05/11 04:45:22;;;;;;;16.05;8.85;;;14.70;99.90;;;;;;5049259;28;20037;-82
2022/05/11 04:47:48;;;;;;;12.38;8.68;;;14.70;99.90;;;;;;5016272;28;20082;-84
2022/05/11 04:50:15;;;;;;;11.80;8.90;;;14.70;99.90;;;;;;5035220;28;20028;-84
2022/05/11 04:52:42;;;;;;;11.82;8.93;;;14.70;99.90;;;;;;5015748;28;20029;-83
2022/05/11 04:55:11;;;;;;;11.40;9.05;;;14.80;99.90;;;;;;5028629;28;20029;-83
2022/05/11 04:57:38;;;;;;;12.55;9.13;;;14.80;99.90;;;;;;5023677;28;20044;-84
2022/05/11 05:00:12;;;;;;;13.43;9.18;;;14.90;99.90;;;;;;5044138;28;20127;-84
2022/05/11 05:02:38;;;;;;;40.45;23.92;;;14.90;99.90;;;;;;5029693;28;20052;-83
2022/05/11 05:05:05;;;;;;;21.20;12.57;;;15.00;99.90;;;;;;5013069;28;20483;-84
2022/05/11 05:07:35;;;;;;;16.77;10.02;;;15.00;99.90;;;;;;5028832;28;20602;-83
2022/05/11 05:10:06;;;;;;;12.63;8.90;;;15.00;99.90;;;;;;5026619;28;20033;-84
2022/05/11 05:12:31;;;;;;;12.07;9.05;;;15.10;99.90;;;;;;5036900;28;20072;-84
2022/05/11 05:14:58;;;;;;;12.13;9.10;;;15.10;99.90;;;;;;5015592;28;20029;-83
2022/05/11 05:17:24;;;;;;;16.40;10.05;;;15.20;99.90;;;;;;5052608;28;20043;-83
2022/05/11 05:19:50;;;;;;;10.88;8.98;;;15.30;99.90;;;;;;5007210;28;20037;-84
2022/05/11 05:22:16;;;;;;;11.48;9.05;;;15.40;99.90;;;;;;5013889;28;20083;-83
2022/05/11 05:24:42;;;;;;;12.63;9.25;;;15.50;99.90;;;;;;5045432;28;20443;-83
2022/05/11 05:27:11;;;;;;;11.23;8.55;;;15.60;99.90;;;;;;5031089;28;20549;-84
2022/05/11 05:32:21;;;;;;;13.00;9.05;;;15.80;99.90;;;;;;5032002;28;20037;-84
2022/05/11 05:34:47;;;;;;;12.45;8.95;;;15.90;99.90;;;;;;5028894;28;20036;-84
2022/05/11 05:37:14;;;;;;;12.88;9.43;;;16.00;99.90;;;;;;5008965;28;20065;-82
2022/05/11 05:39:40;;;;;;;14.65;9.38;;;16.20;99.90;;;;;;5029534;28;20038;-84
2022/05/11 05:42:06;;;;;;;13.63;10.43;;;16.30;99.90;;;;;;5046972;28;20518;-84
2022/05/11 05:44:32;;;;;;;12.23;9.45;;;16.40;99.90;;;;;;5029976;28;20041;-83
2022/05/11 05:47:05;;;;;;;13.05;8.43;;;16.50;99.90;;;;;;5037452;28;20037;-83
2022/05/11 05:49:31;;;;;;;10.27;7.50;;;16.60;99.90;;;;;;5032322;28;20037;-84
2022/05/11 05:52:02;;;;;;;8.57;7.15;;;16.70;99.90;;;;;;5053352;28;20029;-84
2022/05/11 05:54:32;;;;;;;11.13;7.95;;;16.80;99.90;;;;;;5032137;28;20033;-84
2022/05/11 05:56:58;;;;;;;7.05;6.22;;;17.10;99.90;;;;;;5029166;28;20032;-84
2022/05/11 05:59:24;;;;;;;8.95;7.22;;;17.30;99.90;;;;;;5000647;28;20438;-84
2022/05/11 06:01:50;;;;;;;8.13;6.60;;;17.70;99.90;;;;;;5028258;28;20060;-84
2022/05/11 06:04:16;;;;;;;7.97;6.03;;;18.20;99.90;;;;;;5032581;28;20234;-85
2022/05/11 06:06:42;;;;;;;7.85;6.28;;;18.60;99.90;;;;;;5039484;28;20063;-84
2022/05/11 06:09:09;;;;;;;7.85;6.18;;;19.00;99.90;;;;;;5016314;28;20044;-84
2022/05/11 06:11:38;;;;;;;7.32;6.20;;;19.60;99.90;;;;;;5015677;28;20053;-84
2022/05/11 06:14:04;;;;;;;7.72;5.93;;;20.10;99.90;;;;;;5047617;28;20033;-84
2022/05/11 06:16:31;;;;;;;8.00;6.00;;;20.60;99.90;;;;;;5047523;28;20078;-84
2022/05/11 06:18:58;;;;;;;8.75;6.03;;;21.20;98.80;;;;;;5029693;28;20502;-83
2022/05/11 06:21:24;;;;;;;6.65;5.63;;;21.70;97.30;;;;;;5030406;28;20041;-84
2022/05/11 06:23:51;;;;;;;7.40;5.60;;;22.10;95.00;;;;;;5030804;28;20036;-85
2022/05/11 06:26:17;;;;;;;6.82;5.75;;;22.60;94.30;;;;;;5014231;28;20568;-83
2022/05/11 06:28:44;;;;;;;6.93;5.28;;;23.10;92.40;;;;;;5014728;28;20033;-84
2022/05/11 06:31:11;;;;;;;6.82;5.57;;;23.40;91.70;;;;;;5047822;28;20029;-84
2022/05/11 06:33:37;;;;;;;6.60;5.57;;;23.70;90.00;;;;;;5047568;28;20033;-84
2022/05/11 06:36:04;;;;;;;5.88;5.28;;;24.00;89.80;;;;;;5027703;28;20042;-84
2022/05/11 06:38:29;;;;;;;6.30;5.15;;;24.10;85.10;;;;;;5029023;28;20056;-84
2022/05/11 06:40:55;;;;;;;6.07;5.07;;;24.20;84.80;;;;;;5030858;28;20041;-84
2022/05/11 06:43:21;;;;;;;5.32;4.80;;;24.20;83.70;;;;;;5032204;28;20133;-84
2022/05/11 06:45:47;;;;;;;4.85;4.45;;;24.10;81.70;;;;;;5030728;28;20029;-84
2022/05/11 06:48:14;;;;;;;5.45;4.72;;;24.00;79.80;;;;;;5047048;28;20047;-86
2022/05/11 06:50:41;;;;;;;5.38;4.70;;;23.90;79.50;;;;;;5030345;28;20034;-85
2022/05/11 06:53:13;;;;;;;5.22;4.68;;;24.00;81.60;;;;;;5047920;28;20048;-85
2022/05/11 07:01:12;;;;;;;5.63;4.45;;;24.40;79.30;;;;;;5036075;28;20056;-85
2022/05/11 07:03:37;;;;;;;4.60;4.10;;;24.70;79.70;;;;;;5011379;28;20033;-85
2022/05/11 07:06:05;;;;;;;4.40;4.00;;;25.00;76.10;;;;;;5031244;28;20094;-84
2022/05/11 07:08:40;;;;;;;6.57;4.82;;;25.30;76.70;;;;;;5030437;28;20120;-85
2022/05/11 07:14:08;;;;;;;4.63;4.10;;;25.70;71.10;;;;;;4954419;28;20050;-86
2022/05/11 07:16:34;;;;;;;4.50;4.10;;;25.90;75.00;;;;;;4988150;28;20052;-86
2022/05/11 07:19:01;;;;;;;5.00;4.50;;;26.20;72.80;;;;;;5017537;28;20037;-86
2022/05/11 07:21:26;;;;;;;6.47;4.15;;;26.20;68.10;;;;;;5018645;28;20135;-87
2022/05/11 07:23:52;;;;;;;6.03;4.30;;;26.30;68.90;;;;;;5012594;28;20128;-86
2022/05/11 07:26:18;;;;;;;5.15;4.05;;;26.40;69.80;;;;;;4986722;28;20057;-86
2022/05/11 07:28:43;;;;;;;4.53;4.13;;;26.50;68.90;;;;;;5007961;28;20037;-85
2022/05/11 07:31:09;;;;;;;4.97;4.22;;;26.50;69.50;;;;;;4994734;28;20025;-87
2022/05/11 07:33:34;;;;;;;4.50;4.10;;;26.70;65.80;;;;;;5018996;28;20037;-87
2022/05/11 07:36:00;;;;;;;4.85;4.18;;;27.00;69.10;;;;;;4996954;28;20032;-87
2022/05/11 07:38:26;;;;;;;4.13;3.83;;;27.20;65.30;;;;;;5013626;28;20029;-87
2022/05/11 07:40:52;;;;;;;4.90;3.70;;;27.40;66.00;;;;;;5011279;28;20190;-87
2022/05/11 07:43:18;;;;;;;4.15;3.65;;;27.50;63.30;;;;;;5031697;28;20037;-86
2022/05/11 07:45:44;;;;;;;4.53;4.00;;;27.50;63.80;;;;;;5029641;28;20116;-87
2022/05/11 07:48:10;;;;;;;3.90;3.53;;;27.40;63.60;;;;;;5009046;28;20501;-86
2022/05/11 07:50:36;;;;;;;4.20;3.80;;;27.30;65.10;;;;;;5025777;28;20041;-87
2022/05/11 07:53:02;;;;;;;4.50;4.10;;;27.10;63.20;;;;;;5029770;28;20040;-88
2022/05/11 07:55:28;;;;;;;3.78;3.38;;;26.90;63.60;;;;;;5014095;28;20487;-85
2022/05/11 08:00:40;;;;;;;4.35;3.78;;;26.70;63.50;;;;;;5047300;28;20403;-86
2022/05/11 08:03:06;;;;;;;4.20;3.80;;;26.70;64.20;;;;;;5047403;28;20052;-87
2022/05/11 08:05:32;;;;;;;4.55;4.15;;;26.90;65.40;;;;;;5043565;28;20088;-87
2022/05/11 08:08:01;;;;;;;3.88;3.58;;;27.00;65.00;;;;;;5018153;28;20040;-88
2022/05/11 08:10:29;;;;;;;3.95;3.65;;;27.00;65.10;;;;;;5028982;28;20029;-86
2022/05/11 08:12:55;;;;;;;3.85;3.50;;;27.10;64.30;;;;;;5039488;28;20037;-87
2022/05/11 08:15:23;;;;;;;3.80;3.47;;;27.20;63.60;;;;;;5015959;28;20025;-87
2022/05/11 08:17:50;;;;;;;4.00;3.60;;;27.20;67.80;;;;;;5006664;28;20763;-87
2022/05/11 08:20:22;;;;;;;3.97;3.63;;;27.10;62.70;;;;;;5028322;28;20663;-86
2022/05/11 08:22:48;;;;;;;3.67;3.38;;;26.80;66.90;;;;;;5031580;28;20041;-86
2022/05/11 08:25:19;;;;;;;3.60;3.30;;;26.50;64.60;;;;;;5049519;28;20021;-90
2022/05/11 08:27:45;;;;;;;3.42;3.13;;;26.30;68.20;;;;;;5032593;28;20025;-88
2022/05/11 08:35:43;;;;;;;4.07;3.65;;;25.90;67.80;;;;;;5041226;28;20033;-88
2022/05/11 08:38:10;;;;;;;4.65;3.42;;;25.70;66.20;;;;;;5030820;28;20044;-87
2022/05/11 08:40:36;;;;;;;6.57;3.75;;;25.60;66.20;;;;;;5015535;28;20065;-87
2022/05/11 08:43:09;;;;;;;6.85;4.15;;;25.50;69.80;;;;;;5047606;28;20029;-87
2022/05/11 08:46:03;;;;;;;3.92;3.53;;;25.40;70.50;;;;;;5032859;28;20033;-88
2022/05/11 08:48:54;;;;;;;5.85;3.97;;;25.30;69.10;;;;;;5032578;28;20025;-87
2022/05/11 08:51:57;;;;;;;4.00;3.60;;;25.20;66.10;;;;;;5034171;28;20021;-88
2022/05/11 08:54:41;;;;;;;3.70;3.40;;;25.00;70.10;;;;;;5025749;28;20084;-87
2022/05/11 08:57:19;;;;;;;4.07;3.67;;;25.00;71.00;;;;;;5032678;28;20052;-87
2022/05/11 08:59:46;;;;;;;4.18;3.60;;;25.00;71.10;;;;;;5027968;28;20036;-86
2022/05/11 09:02:24;;;;;;;4.32;3.92;;;25.00;71.40;;;;;;5046147;28;20032;-87
2022/05/11 09:04:56;;;;;;;4.57;3.72;;;25.10;69.80;;;;;;5011315;28;20044;-86
2022/05/11 09:07:22;;;;;;;3.72;3.40;;;25.00;68.00;;;;;;5041310;28;20023;-86
2022/05/11 09:09:51;;;;;;;3.65;3.35;;;25.00;72.50;;;;;;5016654;28;20435;-88
2022/05/11 09:12:17;;;;;;;5.88;3.65;;;25.00;69.00;;;;;;5031999;28;20032;-87
2022/05/11 09:14:56;;;;;;;4.15;3.75;;;25.00;71.10;;;;;;5032722;28;20372;-88
2022/05/11 09:17:34;;;;;;;4.38;3.63;;;25.00;72.50;;;;;;5031155;28;20079;-88
2022/05/11 09:20:10;;;;;;;4.07;3.67;;;25.20;74.80;;;;;;5032961;28;20025;-86
2022/05/11 09:22:59;;;;;;;4.40;4.00;;;25.20;70.70;;;;;;5032793;28;20043;-88
2022/05/11 09:25:36;;;;;;;5.97;4.00;;;25.30;71.60;;;;;;5048152;28;20549;-87
2022/05/11 09:28:20;;;;;;;4.18;3.78;;;25.30;69.40;;;;;;5029582;28;20121;-85
2022/05/11 09:31:25;;;;;;;5.97;4.60;;;25.20;67.90;;;;;;5048882;28;20076;-87
2022/05/11 09:34:06;;;;;;;3.83;3.53;;;25.10;68.10;;;;;;5037401;28;20099;-87
2022/05/11 09:36:38;;;;;;;4.63;3.88;;;25.00;68.50;;;;;;5022467;28;20448;-87
2022/05/11 09:39:14;;;;;;;5.90;3.90;;;24.90;69.30;;;;;;5014900;28;20029;-87
2022/05/11 09:41:42;;;;;;;4.30;3.90;;;24.90;68.40;;;;;;5048713;28;20035;-88
2022/05/11 09:44:21;;;;;;;5.28;4.28;;;25.00;73.00;;;;;;5016557;28;20033;-85
2022/05/11 09:46:47;;;;;;;4.28;3.83;;;24.90;66.90;;;;;;5026476;28;20041;-86
2022/05/11 09:49:19;;;;;;;4.38;3.90;;;24.90;71.50;;;;;;5047565;28;20029;-86
2022/05/11 09:51:50;;;;;;;4.65;4.25;;;25.00;68.20;;;;;;5049008;28;20040;-86
2022/05/11 09:54:50;;;;;;;6.60;3.88;;;24.90;68.10;;;;;;5047543;28;20028;-86
2022/05/11 09:57:27;;;;;;;4.00;3.42;;;25.00;71.90;;;;;;5028258;28;20053;-87
2022/05/11 09:59:56;;;;;;;4.88;4.30;;;25.00;68.40;;;;;;5045722;28;20064;-87
2022/05/11 10:02:35;;;;;;;6.03;3.83;;;25.10;69.10;;;;;;5031740;28;20028;-87
2022/05/11 10:05:15;;;;;;;7.00;3.88;;;25.20;67.60;;;;;;5031695;28;20033;-86
2022/05/11 10:08:05;;;;;;;5.15;3.72;;;25.20;70.20;;;;;;5014345;28;20047;-86
2022/05/11 10:10:46;;;;;;;3.72;3.42;;;25.30;70.60;;;;;;5042315;28;20112;-86
2022/05/11 10:13:17;;;;;;;3.85;3.55;;;25.30;68.00;;;;;;5029288;28;20491;-87
2022/05/11 10:21:53;;;;;;;5.07;3.70;;;25.60;62.20;;;;;;5033616;28;20041;-86
2022/05/11 10:24:22;;;;;;;3.58;3.28;;;25.70;63.30;;;;;;5034133;28;20161;-86
2022/05/11 10:27:15;;;;;;;4.22;3.53;;;25.60;65.80;;;;;;5030615;28;20394;-86
2022/05/11 10:29:44;;;;;;;3.95;3.50;;;25.50;64.20;;;;;;5034900;28;20403;-85
2022/05/11 10:32:27;;;;;;;4.72;3.50;;;25.40;66.80;;;;;;5030874;28;20022;-85
2022/05/11 10:35:12;;;;;;;7.30;4.57;;;25.40;68.30;;;;;;5029783;28;20071;-86
2022/05/11 10:37:43;;;;;;;3.92;3.20;;;25.30;65.30;;;;;;5046962;28;20554;-86
2022/05/11 10:40:24;;;;;;;3.60;3.20;;;25.20;64.20;;;;;;5033720;28;20060;-85
2022/05/11 10:43:13;;;;;;;5.25;3.38;;;25.20;67.50;;;;;;5032312;28;20056;-86
2022/05/11 10:45:58;;;;;;;3.42;3.13;;;25.10;67.60;;;;;;5025978;28;20879;-86
2022/05/11 10:48:48;;;;;;;3.75;2.72;;;25.10;69.00;;;;;;5024072;28;20116;-84
2022/05/11 10:51:23;;;;;;;2.90;2.67;;;25.10;63.10;;;;;;5046552;28;20029;-84
2022/05/11 10:53:57;;;;;;;3.58;2.97;;;25.20;65.10;;;;;;5053413;28;20095;-86
2022/05/11 10:56:50;;;;;;;2.90;2.70;;;25.30;68.30;;;;;;5036556;28;20037;-86
2022/05/11 10:59:24;;;;;;;2.80;2.60;;;25.50;67.40;;;;;;5012673;28;20033;-86
2022/05/11 11:02:15;;;;;;;2.40;2.20;;;25.60;61.20;;;;;;5030611;28;20036;-86
2022/05/11 11:04:51;;;;;;;2.42;2.22;;;25.70;65.00;;;;;;5052423;28;20029;-86
2022/05/11 11:07:21;;;;;;;2.30;2.10;;;25.80;62.80;;;;;;5030450;28;20027;-86
2022/05/11 11:09:53;;;;;;;2.50;2.30;;;26.00;60.70;;;;;;5054073;28;20047;-88
2022/05/11 11:12:39;;;;;;;2.22;2.00;;;26.10;58.00;;;;;;5054302;28;20060;-87
2022/05/11 11:15:11;;;;;;;2.65;2.38;;;26.10;61.20;;;;;;5065801;28;20088;-86
2022/05/11 11:17:38;;;;;;;3.33;2.45;;;26.20;59.80;;;;;;5055477;28;20036;-85
2022/05/11 11:20:07;;;;;;;2.67;2.47;;;26.30;58.30;;;;;;5036237;28;20035;-86
2022/05/11 11:23:06;;;;;;;3.63;2.30;;;26.30;59.00;;;;;;5073399;28;20029;-86
2022/05/11 11:25:41;;;;;;;2.40;2.20;;;26.30;58.10;;;;;;5050627;28;20037;-85
2022/05/11 11:28:12;;;;;;;2.90;2.13;;;26.30;56.10;;;;;;5058801;28;20045;-84
2022/05/11 11:30:40;;;;;;;2.30;2.03;;;26.40;58.70;;;;;;5035646;28;20041;-86
2022/05/11 11:33:15;;;;;;;2.30;2.10;;;26.40;59.00;;;;;;5036664;28;20048;-86
2022/05/11 11:35:53;;;;;;;;;;;26.60;57.40;;;;;;5063432;28;20025;-85
2022/05/11 11:38:24;;;;;;;2.55;2.35;;;26.60;57.80;;;;;;5052409;28;19908;-87
2022/05/11 11:41:09;;;;;;;2.40;2.20;;;26.60;60.30;;;;;;5018311;28;20037;-84
2022/05/11 11:43:45;;;;;;;2.35;2.20;;;26.60;59.00;;;;;;5032368;28;20025;-86
2022/05/11 11:46:40;;;;;;;2.67;2.47;;;26.60;57.80;;;;;;5033334;28;20032;-85
2022/05/11 11:49:08;;;;;;;3.75;2.40;;;26.70;58.70;;;;;;5023515;28;20079;-86
2022/05/11 11:52:00;;;;;;;2.03;1.77;;;26.80;58.50;;;;;;5035148;28;20033;-85
2022/05/11 11:54:38;;;;;;;2.38;2.15;;;26.90;57.90;;;;;;5019927;28;20037;-86
2022/05/11 11:57:06;;;;;;;3.38;2.15;;;27.00;54.50;;;;;;5040023;28;20096;-84
2022/05/11 11:59:35;;;;;;;2.05;1.70;;;27.10;55.70;;;;;;5028445;28;20488;-86
2022/05/11 12:02:30;;;;;;;3.28;2.08;;;27.20;53.70;;;;;;5030417;28;20033;-85
2022/05/11 12:05:27;;;;;;;3.33;2.15;;;27.20;55.10;;;;;;5037230;28;20071;-86
2022/05/11 12:16:25;;;;;;;2.20;2.00;;;27.50;52.70;;;;;;5050141;28;20060;-84
2022/05/11 12:18:52;;;;;;;3.13;2.03;;;27.50;51.20;;;;;;5031413;28;20060;-84
2022/05/11 12:21:30;;;;;;;4.15;2.28;;;27.40;54.70;;;;;;5048446;28;20426;-84
2022/05/11 12:24:02;;;;;;;3.38;2.22;;;27.50;53.50;;;;;;5013853;28;20037;-86
2022/05/11 12:26:32;;;;;;;1.73;1.63;;;27.60;53.50;;;;;;5027823;28;20438;-85
2022/05/11 12:32:08;;;;;;;5.82;2.20;;;27.90;54.90;;;;;;5058437;28;20037;-85
2022/05/11 12:34:44;;;;;;;2.38;2.00;;;28.00;54.90;;;;;;5024147;28;20030;-84
2022/05/11 12:37:28;;;;;;;2.10;1.90;;;28.10;53.80;;;;;;5027767;28;20037;-85
2022/05/11 12:40:15;;;;;;;2.88;1.83;;;28.30;51.20;;;;;;5022095;28;20170;-85
2022/05/11 12:42:46;;;;;;;3.85;2.20;;;28.30;53.50;;;;;;5042742;28;20041;-86
2022/05/11 12:45:19;;;;;;;2.28;2.05;;;28.30;56.00;;;;;;5026270;28;20091;-86
2022/05/11 12:47:50;;;;;;;2.50;2.10;;;28.20;55.10;;;;;;5030111;28;20487;-86
2022/05/11 12:50:21;;;;;;;1.80;1.70;;;28.20;55.00;;;;;;5033366;28;20071;-86
2022/05/11 12:53:00;;;;;;;1.92;1.80;;;28.20;52.70;;;;;;5014239;28;20037;-85
2022/05/11 12:55:31;;;;;;;2.30;2.10;;;28.40;53.40;;;;;;5043018;28;20033;-85
2022/05/11 12:57:57;;;;;;;2.75;2.15;;;28.60;53.00;;;;;;5039996;28;20170;-86
2022/05/11 13:00:26;;;;;;;2.63;2.05;;;28.70;54.10;;;;;;5011270;28;20092;-85
2022/05/11 13:02:52;;;;;;;2.40;1.95;;;28.80;54.00;;;;;;5030328;28;20040;-84
2022/05/11 13:05:20;;;;;;;2.30;2.10;;;28.90;49.90;;;;;;5025919;28;20021;-85
2022/05/11 13:07:54;;;;;;;2.03;1.88;;;29.10;49.70;;;;;;5022045;28;22053;-84
2022/05/11 13:10:38;;;;;;;3.25;1.98;;;29.30;49.50;;;;;;5017819;28;20064;-85
2022/05/11 13:13:11;;;;;;;2.58;2.20;;;29.20;49.90;;;;;;5029725;28;20033;-85
2022/05/11 13:15:42;;;;;;;3.95;1.85;;;29.20;51.60;;;;;;5027486;28;20077;-85
2022/05/11 13:18:24;;;;;;;2.45;1.92;;;29.10;50.50;;;;;;5044131;28;20055;-84
2022/05/11 13:20:52;;;;;;;1.98;1.70;;;29.00;48.80;;;;;;5027675;28;20055;-86
2022/05/11 13:23:37;;;;;;;3.40;1.98;;;28.90;49.60;;;;;;5013662;28;20556;-85
2022/05/11 13:26:29;;;;;;;2.95;2.03;;;28.80;49.00;;;;;;5027851;28;20119;-85
2022/05/11 13:29:01;;;;;;;11.35;8.57;;;28.80;49.20;;;;;;5013642;28;20060;-86
2022/05/11 13:31:29;;;;;;;3.08;2.67;;;28.70;48.20;;;;;;5042818;28;20120;-86
2022/05/11 13:33:55;;;;;;;2.45;2.25;;;28.80;50.60;;;;;;5041133;28;20431;-86
2022/05/11 13:36:49;;;;;;;2.30;2.10;;;28.80;48.00;;;;;;5027411;28;20530;-85
2022/05/11 13:39:37;;;;;;;1.73;1.63;;;28.80;49.20;;;;;;5043087;28;20025;-86
2022/05/11 13:42:24;;;;;;;2.08;1.98;;;28.70;50.20;;;;;;5012733;28;20123;-85
2022/05/11 13:45:05;;;;;;;2.90;1.80;;;28.60;51.00;;;;;;5027071;28;20498;-85